This is the latest recevied weather packets stored in our database for station/object AA9VI-10. If no packets are shown the sender has not sent any weather packets the latest 1 day(s).
| Time | Temp. | Humidity | Pressure | Rain* | Wind** | Luminosity | Snow |
|---|---|---|---|---|---|---|---|
| 1778046618 | 8.33° C | 48% | 1010.9 hPa | 0 mm | - | - | - |
| 1778044818 | 8.89° C | 48% | 1010.7 hPa | 0 mm | - | - | - |
| 1778044218 | 8.89° C | 49% | 1010.6 hPa | 0 mm | - | - | - |
| 1778043617 | 8.89° C | 49% | 1010.3 hPa | 0 mm | - | - | - |
| 1778042416 | 9.44° C | 46% | 1010.3 hPa | 0 mm | - | - | - |
| 1778041816 | 10° C | 46% | 1010.5 hPa | 0 mm | - | - | - |
| 1778039416 | 10.56° C | 42% | 1010.2 hPa | 0 mm | - | - | - |
| 1778038816 | 10.56° C | 42% | 1010.3 hPa | 0 mm | - | - | - |
| 1778037016 | 10.56° C | 45% | 1009.6 hPa | 0 mm | - | - | - |
| 1778036416 | 10° C | 46% | 1009.5 hPa | 0 mm | - | - | - |
| 1778035816 | 10° C | 50% | 1009.7 hPa | 0 mm | - | - | - |
| 1778035216 | 10° C | 50% | 1009.7 hPa | 0 mm | - | - | - |
| 1778034016 | 10.56° C | 46% | 1009.3 hPa | 0 mm | - | - | - |
| 1778033416 | 10.56° C | 46% | 1009.1 hPa | 0 mm | - | - | - |
| 1778032216 | 11.11° C | 44% | 1008.9 hPa | 0 mm | - | - | - |
| 1778031616 | 11.11° C | 45% | 1008.7 hPa | 0 mm | - | - | - |
| 1778031016 | 11.67° C | 42% | 1008.4 hPa | 0 mm | - | - | - |
| 1778030416 | 11.67° C | 42% | 1008.3 hPa | 0 mm | - | - | - |
| 1778029816 | 11.67° C | 41% | 1008.3 hPa | 0 mm | - | - | - |
| 1778028616 | 12.22° C | 40% | 1008.1 hPa | 0 mm | - | - | - |
| 1778028016 | 12.22° C | 39% | 1007.9 hPa | 0 mm | - | - | - |
| 1778026216 | 12.78° C | 37% | 1008 hPa | 0 mm | - | - | - |
| 1778020816 | 12.78° C | 35% | 1008.3 hPa | 0 mm | - | - | - |
| 1778019016 | 13.33° C | 35% | 1008.1 hPa | 0 mm | - | - | - |
| 1778015416 | 13.33° C | 34% | 1008.2 hPa | 0 mm | - | - | - |
* Rain latest hour (hover to see other rain measurements)
** Current wind speed in m/s (hover to see current wind gust speed)